Time;durP1;ratioP1;P1;durP2;ratioP2;P2;SDS_P1;SDS_P2;PMS_P1;PMS_P2;Temp;Humidity;BMP_temperature;BMP_pressure;BME280_temperature;BME280_humidity;BME280_pressure;Samples;Min_cycle;Max_cycle;Signal;HPM_P1;HPM_P2
2022/02/15 00:00:30;;;;;;;58.10;26.58;;;1.50;63.70;;;;;;5117472;27;20031;-43
2022/02/15 00:02:56;;;;;;;92.13;35.72;;;1.50;63.80;;;;;;5117047;28;20438;-44
2022/02/15 00:05:22;;;;;;;103.82;39.33;;;1.50;63.80;;;;;;5117383;28;20028;-40
2022/02/15 00:07:48;;;;;;;97.90;37.38;;;1.50;63.90;;;;;;5116930;28;20293;-41
2022/02/15 00:10:14;;;;;;;92.50;32.38;;;1.50;63.90;;;;;;5117354;28;20304;-45
2022/02/15 00:12:40;;;;;;;88.10;34.42;;;1.50;64.00;;;;;;5116943;28;20305;-45
2022/02/15 00:15:07;;;;;;;85.47;33.45;;;1.50;64.10;;;;;;5116883;28;20062;-40
2022/02/15 00:17:37;;;;;;;81.90;31.38;;;1.50;64.10;;;;;;5116622;28;20069;-45
2022/02/15 00:20:04;;;;;;;93.10;34.10;;;1.50;64.20;;;;;;5117131;28;20065;-43
2022/02/15 00:22:30;;;;;;;113.47;41.13;;;1.50;64.20;;;;;;5116375;28;20024;-44
2022/02/15 00:24:56;;;;;;;112.75;41.00;;;1.50;64.20;;;;;;5117017;28;20169;-40
2022/02/15 00:27:21;;;;;;;116.88;40.97;;;1.50;64.20;;;;;;5116770;28;20035;-43
2022/02/15 00:29:47;;;;;;;128.77;44.90;;;1.50;64.20;;;;;;5117199;28;20396;-45
2022/02/15 00:32:13;;;;;;;92.70;34.78;;;1.40;64.10;;;;;;5116381;28;20028;-41
2022/02/15 00:34:38;;;;;;;78.03;30.60;;;1.50;64.20;;;;;;5116685;28;20023;-40
2022/02/15 00:37:04;;;;;;;130.63;43.00;;;1.40;64.20;;;;;;5116882;28;20031;-45
2022/02/15 00:39:30;;;;;;;111.88;37.90;;;1.50;64.30;;;;;;5117053;28;20042;-40
2022/02/15 00:41:56;;;;;;;97.60;36.92;;;1.40;64.20;;;;;;5116017;28;20035;-42
2022/02/15 00:44:21;;;;;;;66.70;27.77;;;1.40;64.20;;;;;;5116705;28;20031;-42
2022/02/15 00:46:48;;;;;;;61.72;28.00;;;1.40;64.20;;;;;;5116486;28;20107;-40
2022/02/15 00:49:14;;;;;;;62.15;27.70;;;1.40;64.40;;;;;;5117048;28;20028;-43
2022/02/15 00:51:40;;;;;;;50.72;25.98;;;1.40;64.40;;;;;;5116263;28;20457;-41
2022/02/15 00:54:05;;;;;;;61.30;27.23;;;1.30;64.50;;;;;;5116253;28;20319;-40
2022/02/15 00:56:31;;;;;;;60.28;26.83;;;1.30;64.60;;;;;;5116510;28;20311;-44
2022/02/15 00:58:57;;;;;;;54.92;25.52;;;1.30;64.70;;;;;;5116471;28;20020;-41
2022/02/15 01:01:22;;;;;;;60.95;27.38;;;1.20;64.70;;;;;;5116834;28;20031;-40
2022/02/15 01:03:48;;;;;;;78.18;32.13;;;1.20;64.90;;;;;;5116094;28;20046;-40
2022/02/15 01:09:36;;;;;;;85.18;36.60;;;1.20;65.10;;;;;;5116380;28;20070;-40
2022/02/15 01:12:02;;;;;;;78.88;32.65;;;1.20;65.10;;;;;;5115812;28;20067;-40
2022/02/15 01:14:28;;;;;;;73.65;32.20;;;1.20;65.10;;;;;;5116160;28;20112;-40
2022/02/15 01:16:54;;;;;;;69.50;29.83;;;1.20;65.20;;;;;;5115898;28;20035;-44
2022/02/15 01:19:19;;;;;;;56.70;26.67;;;1.20;65.20;;;;;;5116335;28;20024;-40
2022/02/15 01:21:45;;;;;;;102.88;37.05;;;1.20;65.20;;;;;;5116293;28;20293;-43
2022/02/15 01:24:11;;;;;;;160.05;51.95;;;1.20;65.20;;;;;;5116074;28;20468;-40
2022/02/15 01:26:37;;;;;;;168.68;54.83;;;1.20;65.20;;;;;;5116404;28;20039;-43
2022/02/15 01:29:03;;;;;;;154.57;50.78;;;1.20;65.20;;;;;;5116136;28;20415;-43
2022/02/15 01:31:28;;;;;;;156.82;51.80;;;1.20;65.20;;;;;;5116162;28;20034;-40
2022/02/15 01:33:54;;;;;;;153.93;50.60;;;1.20;65.20;;;;;;5116016;28;20031;-40
2022/02/15 01:36:20;;;;;;;147.98;48.47;;;1.20;65.30;;;;;;5116516;28;20400;-41
2022/02/15 01:38:46;;;;;;;165.27;54.28;;;1.20;65.30;;;;;;5116159;28;20354;-43
2022/02/15 01:41:11;;;;;;;165.82;52.85;;;1.20;65.40;;;;;;5116544;28;20427;-43
2022/02/15 01:43:47;;;;;;;109.43;38.25;;;1.20;65.40;;;;;;5115802;28;20070;-40
2022/02/15 01:46:13;;;;;;;71.88;31.60;;;1.20;65.50;;;;;;5116443;28;20403;-39
2022/02/15 01:48:41;;;;;;;67.78;30.38;;;1.30;65.50;;;;;;5115688;28;20035;-44
2022/02/15 01:51:07;;;;;;;65.72;31.75;;;1.20;65.40;;;;;;5116181;28;20036;-40
2022/02/15 01:53:33;;;;;;;62.03;29.00;;;1.20;65.40;;;;;;5116774;28;20119;-41
2022/02/15 01:56:00;;;;;;;72.25;30.10;;;1.20;65.40;;;;;;5120080;28;20400;-40
2022/02/15 01:58:25;;;;;;;69.45;30.17;;;1.30;65.40;;;;;;5119484;28;20036;-40
2022/02/15 02:00:51;;;;;;;70.18;29.95;;;1.20;65.40;;;;;;5119874;27;20113;-43
2022/02/15 02:03:17;;;;;;;74.85;30.30;;;1.30;65.40;;;;;;5119350;28;20104;-44
2022/02/15 02:05:49;;;;;;;72.45;29.10;;;1.20;65.30;;;;;;5119859;28;20057;-39
2022/02/15 02:08:22;;;;;;;70.85;30.73;;;1.20;65.30;;;;;;5119283;27;20035;-44
2022/02/15 02:10:50;;;;;;;68.65;30.80;;;1.30;65.50;;;;;;5119846;28;20024;-40
2022/02/15 02:13:16;;;;;;;65.47;27.75;;;1.20;65.40;;;;;;5118862;28;20039;-44
2022/02/15 02:15:44;;;;;;;57.60;25.48;;;1.20;65.40;;;;;;5119602;28;20020;-43
2022/02/15 02:18:10;;;;;;;63.05;28.98;;;1.20;65.40;;;;;;5119271;28;20092;-43
2022/02/15 02:20:36;;;;;;;60.88;27.13;;;1.20;65.40;;;;;;5119538;27;20127;-45
2022/02/15 02:23:02;;;;;;;64.10;28.10;;;1.20;65.40;;;;;;5118911;28;20071;-43
2022/02/15 02:25:28;;;;;;;57.97;26.23;;;1.20;65.50;;;;;;5119407;28;20027;-40
2022/02/15 02:27:53;;;;;;;62.47;28.20;;;1.20;65.60;;;;;;5118731;28;20028;-43
2022/02/15 02:30:20;;;;;;;65.35;28.98;;;1.20;65.60;;;;;;5119225;28;20365;-44
2022/02/15 02:32:45;;;;;;;57.15;25.85;;;1.20;65.60;;;;;;5118929;28;20107;-45
2022/02/15 02:35:12;;;;;;;55.50;24.63;;;1.20;65.60;;;;;;5119215;28;20133;-40
2022/02/15 02:37:38;;;;;;;57.08;25.48;;;1.20;65.70;;;;;;5118687;28;20051;-40
2022/02/15 02:40:06;;;;;;;58.58;25.90;;;1.20;65.70;;;;;;5119188;28;20035;-44
2022/02/15 02:42:33;;;;;;;57.05;24.50;;;1.20;65.70;;;;;;5118556;28;20478;-40
2022/02/15 02:45:05;;;;;;;57.95;25.30;;;1.20;66.20;;;;;;5119049;28;20032;-43
2022/02/15 02:47:31;;;;;;;54.45;27.17;;;1.20;65.60;;;;;;5118810;28;20116;-43
2022/02/15 02:49:57;;;;;;;67.45;30.88;;;1.20;65.50;;;;;;5118772;28;20081;-45
2022/02/15 02:52:23;;;;;;;57.70;28.60;;;1.20;65.50;;;;;;5118315;28;20327;-40
2022/02/15 02:54:49;;;;;;;54.78;24.75;;;1.20;65.60;;;;;;5118830;27;20311;-40
2022/02/15 02:57:16;;;;;;;56.20;24.23;;;1.10;65.60;;;;;;5118277;28;20114;-41
2022/02/15 02:59:46;;;;;;;49.63;22.35;;;1.10;65.60;;;;;;5118530;28;20031;-43
2022/02/15 03:02:12;;;;;;;42.67;21.87;;;1.10;65.60;;;;;;5118258;28;20036;-40
2022/02/15 03:04:38;;;;;;;53.78;24.98;;;1.20;65.60;;;;;;5118017;28;20347;-44
2022/02/15 03:07:04;;;;;;;50.28;21.98;;;1.20;65.60;;;;;;5117761;28;20104;-44
2022/02/15 03:09:30;;;;;;;55.17;23.63;;;1.10;65.60;;;;;;5118695;28;20026;-41
2022/02/15 03:11:56;;;;;;;49.13;22.73;;;1.10;65.60;;;;;;5117786;28;20118;-45
2022/02/15 03:14:22;;;;;;;47.17;23.42;;;1.10;65.60;;;;;;5118104;28;20046;-40
2022/02/15 03:16:47;;;;;;;105.80;45.80;;;1.10;65.60;;;;;;5117899;28;20059;-40
2022/02/15 03:19:13;;;;;;;59.47;26.73;;;1.10;65.60;;;;;;5117989;28;20023;-41
2022/02/15 03:21:39;;;;;;;66.70;29.77;;;1.10;65.70;;;;;;5117891;28;20035;-40
2022/02/15 03:24:05;;;;;;;53.95;24.50;;;1.10;65.70;;;;;;5118121;27;20035;-43
2022/02/15 03:26:30;;;;;;;65.78;28.27;;;1.10;65.70;;;;;;5117816;28;20406;-46
2022/02/15 03:28:56;;;;;;;75.20;34.78;;;1.10;65.70;;;;;;5117565;28;20027;-43
2022/02/15 03:31:22;;;;;;;57.97;26.08;;;1.20;65.70;;;;;;5118127;28;20083;-43
2022/02/15 03:33:48;;;;;;;59.95;25.70;;;1.10;65.70;;;;;;5117592;28;20041;-41
2022/02/15 03:36:15;;;;;;;58.83;26.02;;;1.10;65.70;;;;;;5118215;28;20048;-40
2022/02/15 03:38:41;;;;;;;59.95;25.95;;;1.20;65.70;;;;;;5117494;28;20172;-41
2022/02/15 03:43:51;;;;;;;75.53;31.20;;;1.20;65.70;;;;;;5117664;28;20351;-44
2022/02/15 03:46:17;;;;;;;73.38;30.98;;;1.20;65.50;;;;;;5117980;28;20027;-41
2022/02/15 03:48:43;;;;;;;67.88;28.45;;;1.20;65.30;;;;;;5117457;28;20031;-45
2022/02/15 03:51:09;;;;;;;57.95;23.75;;;1.20;65.20;;;;;;5117772;28;20030;-40
2022/02/15 03:53:34;;;;;;;55.08;23.85;;;1.20;65.30;;;;;;5117072;28;20058;-41
2022/02/15 03:56:00;;;;;;;60.25;24.42;;;1.20;65.30;;;;;;5117573;28;20026;-43
2022/02/15 03:58:26;;;;;;;66.45;25.50;;;1.20;65.30;;;;;;5117179;28;20039;-44
2022/02/15 04:00:51;;;;;;;64.57;25.52;;;1.20;65.30;;;;;;5117588;28;20030;-43
2022/02/15 04:03:17;;;;;;;60.88;23.65;;;1.20;65.10;;;;;;5116968;28;20070;-40
2022/02/15 04:05:43;;;;;;;53.88;23.95;;;1.20;65.00;;;;;;5117487;28;20028;-43
2022/02/15 04:08:09;;;;;;;53.25;22.85;;;1.20;65.00;;;;;;5116734;28;20104;-43
2022/02/15 04:10:34;;;;;;;61.10;24.95;;;1.20;65.00;;;;;;5117115;28;20027;-44
2022/02/15 04:13:00;;;;;;;74.95;29.25;;;1.20;65.00;;;;;;5116790;28;20036;-40
2022/02/15 04:15:26;;;;;;;57.85;23.33;;;1.20;64.90;;;;;;5117406;28;20331;-45
2022/02/15 04:17:51;;;;;;;69.60;27.13;;;1.20;64.80;;;;;;5116556;28;20031;-40
2022/02/15 04:20:17;;;;;;;64.88;26.20;;;1.20;64.70;;;;;;5117382;28;20027;-41
2022/02/15 04:22:43;;;;;;;50.33;22.95;;;1.20;64.60;;;;;;5116923;28;20054;-43
2022/02/15 04:25:10;;;;;;;49.92;22.63;;;1.10;64.50;;;;;;5116948;28;20145;-43
2022/02/15 04:27:36;;;;;;;46.65;21.55;;;1.10;64.50;;;;;;5116734;28;20027;-45
2022/02/15 04:30:02;;;;;;;92.15;37.95;;;1.10;64.50;;;;;;5117047;28;20289;-45
2022/02/15 04:32:28;;;;;;;76.90;29.73;;;1.10;64.60;;;;;;5116443;28;20016;-40
2022/02/15 04:34:53;;;;;;;59.40;23.75;;;1.10;64.70;;;;;;5116791;28;20026;-40
2022/02/15 04:37:19;;;;;;;45.92;21.23;;;1.10;64.70;;;;;;5116293;28;20450;-43
2022/02/15 04:39:44;;;;;;;53.92;22.23;;;1.10;64.70;;;;;;5116633;28;20098;-41
2022/02/15 04:42:10;;;;;;;46.35;20.90;;;1.00;64.90;;;;;;5116234;28;20100;-44
2022/02/15 04:44:36;;;;;;;52.78;23.48;;;1.00;65.10;;;;;;5116661;28;20084;-40
2022/02/15 04:47:03;;;;;;;51.47;22.98;;;1.00;65.20;;;;;;5116132;28;20027;-43
2022/02/15 04:49:28;;;;;;;43.60;20.23;;;1.00;65.40;;;;;;5116876;28;20307;-40
2022/02/15 04:51:55;;;;;;;45.47;19.30;;;1.00;65.70;;;;;;5116233;28;20023;-49
2022/02/15 04:54:22;;;;;;;43.83;20.30;;;1.00;66.00;;;;;;5116742;28;20069;-40
2022/02/15 04:56:48;;;;;;;45.60;19.55;;;1.00;66.30;;;;;;5116137;28;20028;-40
2022/02/15 04:59:14;;;;;;;47.75;19.60;;;1.00;66.40;;;;;;5116377;28;20072;-40
2022/02/15 05:01:40;;;;;;;50.63;19.20;;;1.00;66.50;;;;;;5116154;28;20424;-44
2022/02/15 05:04:06;;;;;;;56.60;22.30;;;1.00;66.60;;;;;;5116514;28;20020;-41
2022/02/15 05:06:31;;;;;;;54.50;20.88;;;1.00;66.70;;;;;;5116418;28;20035;-40
2022/02/15 05:08:57;;;;;;;45.10;19.75;;;1.00;66.80;;;;;;5115858;28;20483;-40
2022/02/15 05:11:23;;;;;;;40.92;18.23;;;1.00;67.00;;;;;;5116717;28;20054;-40
2022/02/15 05:13:48;;;;;;;39.35;17.40;;;1.10;67.30;;;;;;5115794;28;20052;-45
2022/02/15 05:16:14;;;;;;;45.65;20.17;;;1.10;67.70;;;;;;5116532;28;20034;-40
2022/02/15 05:18:40;;;;;;;39.33;20.13;;;1.10;68.00;;;;;;5115870;28;20103;-41
2022/02/15 05:21:05;;;;;;;48.97;22.45;;;1.10;68.30;;;;;;5116415;28;20114;-45
2022/02/15 05:23:32;;;;;;;46.38;19.98;;;1.10;68.50;;;;;;5116207;28;20135;-44
2022/02/15 05:25:58;;;;;;;52.95;20.80;;;1.10;68.60;;;;;;5116431;28;20119;-40
2022/02/15 05:28:24;;;;;;;58.28;22.55;;;1.20;68.80;;;;;;5116291;28;20114;-47
2022/02/15 05:30:50;;;;;;;46.58;20.27;;;1.20;68.70;;;;;;5120324;28;20311;-44
2022/02/15 05:33:16;;;;;;;46.15;19.90;;;1.20;68.70;;;;;;5119327;28;20103;-44
2022/02/15 05:35:42;;;;;;;88.30;29.85;;;1.20;68.70;;;;;;5120119;28;20328;-41
2022/02/15 05:38:07;;;;;;;96.78;35.55;;;1.30;68.70;;;;;;5119582;28;20075;-46
2022/02/15 05:40:33;;;;;;;86.93;35.05;;;1.30;68.70;;;;;;5119938;28;20032;-44
2022/02/15 05:42:59;;;;;;;77.40;33.90;;;1.30;68.70;;;;;;5119396;28;20086;-44
2022/02/15 05:45:27;;;;;;;74.97;34.95;;;1.30;68.80;;;;;;5120206;28;20311;-44
2022/02/15 05:47:53;;;;;;;53.45;28.75;;;1.40;68.90;;;;;;5119493;28;20122;-43
2022/02/15 05:53:03;;;;;;;50.78;22.60;;;1.40;69.00;;;;;;5119698;28;20057;-43
2022/02/15 05:55:29;;;;;;;46.80;21.35;;;1.40;69.10;;;;;;5119857;28;20032;-40
2022/02/15 05:57:56;;;;;;;42.17;19.83;;;1.50;69.20;;;;;;5118596;28;20047;-40
2022/02/15 06:00:21;;;;;;;41.42;19.73;;;1.50;69.20;;;;;;5119321;28;20096;-44
2022/02/15 06:02:47;;;;;;;46.67;20.48;;;1.60;69.30;;;;;;5118270;28;20039;-43
2022/02/15 06:05:13;;;;;;;41.00;18.33;;;1.60;69.20;;;;;;5119292;28;20032;-40
2022/02/15 06:07:39;;;;;;;38.80;18.35;;;1.60;69.30;;;;;;5118963;28;20044;-40
2022/02/15 06:10:05;;;;;;;39.30;18.75;;;1.70;69.30;;;;;;5118981;28;20033;-44
2022/02/15 06:12:31;;;;;;;40.42;19.13;;;1.70;69.20;;;;;;5118477;28;20035;-40
2022/02/15 06:14:57;;;;;;;47.47;19.80;;;1.80;69.20;;;;;;5119083;28;20058;-45
2022/02/15 06:17:22;;;;;;;39.47;18.55;;;1.90;69.20;;;;;;5119098;28;20031;-40
2022/02/15 06:19:48;;;;;;;81.13;46.33;;;2.00;69.10;;;;;;5118545;28;20353;-44
2022/02/15 06:22:14;;;;;;;88.22;49.63;;;2.00;68.90;;;;;;5118516;28;20046;-44
2022/02/15 06:24:39;;;;;;;99.70;51.58;;;2.10;68.80;;;;;;5118495;28;20073;-44
2022/02/15 06:27:05;;;;;;;92.13;47.55;;;2.10;68.60;;;;;;5118532;28;20085;-40
2022/02/15 06:29:34;;;;;;;78.75;40.10;;;2.20;68.40;;;;;;5118976;28;20081;-44
2022/02/15 06:32:01;;;;;;;85.18;43.78;;;2.30;68.30;;;;;;5118252;28;20036;-40
2022/02/15 06:34:26;;;;;;;96.80;48.75;;;2.30;68.10;;;;;;5118772;28;20027;-43
2022/02/15 06:36:53;;;;;;;65.95;36.22;;;2.30;68.10;;;;;;5118320;28;20076;-41
2022/02/15 06:39:19;;;;;;;54.72;29.13;;;2.40;68.00;;;;;;5118351;28;20036;-40
2022/02/15 06:41:44;;;;;;;51.83;26.73;;;2.50;67.90;;;;;;5118388;28;20050;-40
2022/02/15 06:44:10;;;;;;;52.33;25.20;;;2.50;67.70;;;;;;5118420;28;20031;-40
2022/02/15 06:46:36;;;;;;;42.45;21.15;;;2.60;67.50;;;;;;5118163;28;20160;-40
2022/02/15 06:49:03;;;;;;;70.30;34.83;;;2.60;67.20;;;;;;5118560;28;20039;-41
2022/02/15 06:51:29;;;;;;;155.65;78.80;;;2.70;66.90;;;;;;5118470;28;20323;-43
2022/02/15 06:53:55;;;;;;;247.48;117.65;;;2.80;66.80;;;;;;5117749;28;20039;-44
2022/02/15 06:56:20;;;;;;;94.75;39.88;;;2.80;66.60;;;;;;5118409;27;20028;-44
2022/02/15 06:58:46;;;;;;;297.50;119.45;;;2.90;66.30;;;;;;5117703;28;20146;-44
2022/02/15 07:01:12;;;;;;;87.05;39.75;;;3.00;66.00;;;;;;5118312;28;20035;-40
2022/02/15 07:03:37;;;;;;;49.72;25.08;;;3.10;65.80;;;;;;5117804;28;20062;-44
2022/02/15 07:06:04;;;;;;;56.25;26.00;;;3.20;65.60;;;;;;5117785;28;20032;-45
2022/02/15 07:08:30;;;;;;;40.40;19.45;;;3.20;65.50;;;;;;5117520;28;20059;-40
2022/02/15 07:10:56;;;;;;;43.90;19.90;;;3.30;65.20;;;;;;5117921;28;20028;-44
2022/02/15 07:13:25;;;;;;;40.33;17.33;;;3.30;65.00;;;;;;5117363;28;20058;-46
2022/02/15 07:15:50;;;;;;;35.35;18.08;;;3.40;65.00;;;;;;5118010;28;20036;-44
2022/02/15 07:18:16;;;;;;;33.80;15.60;;;3.50;64.90;;;;;;5117507;28;20039;-40
2022/02/15 07:20:42;;;;;;;35.25;17.38;;;3.50;64.80;;;;;;5117364;28;20438;-41
2022/02/15 07:23:10;;;;;;;59.28;24.15;;;3.60;64.70;;;;;;5115327;28;20035;-44
2022/02/15 07:25:37;;;;;;;79.63;31.50;;;3.70;64.80;;;;;;5117750;28;20031;-44
2022/02/15 07:28:03;;;;;;;49.08;23.10;;;3.70;64.70;;;;;;5112307;28;20064;-40
2022/02/15 07:30:29;;;;;;;49.92;27.38;;;3.70;64.60;;;;;;5116901;28;20297;-44
2022/02/15 07:32:56;;;;;;;48.97;25.90;;;3.90;64.50;;;;;;5116513;28;20027;-41
2022/02/15 07:35:21;;;;;;;49.17;19.83;;;3.90;64.30;;;;;;5117303;27;20297;-44
2022/02/15 07:37:51;;;;;;;40.08;20.70;;;3.90;64.20;;;;;;5116574;28;20050;-46
2022/02/15 07:40:21;;;;;;;61.22;36.75;;;4.00;64.10;;;;;;5115703;28;20034;-40
2022/02/15 07:42:47;;;;;;;57.35;32.63;;;4.10;64.20;;;;;;5116158;28;20085;-45
2022/02/15 07:45:17;;;;;;;39.35;19.48;;;4.20;64.20;;;;;;5117027;28;20105;-45
2022/02/15 07:47:47;;;;;;;37.47;19.80;;;4.20;64.30;;;;;;5116539;28;20378;-48
2022/02/15 07:50:14;;;;;;;41.22;21.67;;;4.30;64.40;;;;;;5117127;28;20370;-40
2022/02/15 07:52:40;;;;;;;48.55;20.90;;;4.30;64.40;;;;;;5115448;28;20023;-40
2022/02/15 07:55:06;;;;;;;39.78;18.38;;;4.30;64.40;;;;;;5116851;28;20031;-44
2022/02/15 07:57:32;;;;;;;30.90;15.52;;;4.40;64.20;;;;;;5116516;28;20047;-45
2022/02/15 07:59:57;;;;;;;36.08;18.58;;;4.40;64.10;;;;;;5116977;28;20055;-40
2022/02/15 08:02:23;;;;;;;33.33;16.85;;;4.40;64.10;;;;;;5116122;28;20449;-45
2022/02/15 08:04:49;;;;;;;37.78;19.52;;;4.40;64.00;;;;;;5116583;28;20524;-40
2022/02/15 08:07:14;;;;;;;51.22;27.67;;;4.40;64.10;;;;;;5115463;28;20419;-40
2022/02/15 08:09:40;;;;;;;45.42;22.38;;;4.40;64.30;;;;;;5116452;28;20031;-40
2022/02/15 08:12:08;;;;;;;30.98;16.85;;;4.40;64.40;;;;;;5114432;28;20315;-44
2022/02/15 08:14:35;;;;;;;37.25;18.48;;;4.40;64.60;;;;;;5116541;28;20047;-46
2022/02/15 08:17:00;;;;;;;37.65;18.95;;;4.40;64.70;;;;;;5115324;28;20024;-45
2022/02/15 08:19:27;;;;;;;34.97;17.75;;;4.40;64.80;;;;;;5116600;28;20036;-44
2022/02/15 08:21:54;;;;;;;35.22;17.23;;;4.40;64.90;;;;;;5116093;28;20157;-45
2022/02/15 08:24:21;;;;;;;31.40;16.13;;;4.40;64.90;;;;;;5115904;28;20030;-44
2022/02/15 08:26:47;;;;;;;38.90;18.98;;;4.40;64.90;;;;;;5115874;28;20124;-40
2022/02/15 08:29:13;;;;;;;75.18;39.88;;;4.40;65.10;;;;;;5115619;28;20065;-40
2022/02/15 08:31:39;;;;;;;45.75;22.27;;;4.40;65.20;;;;;;5116191;28;20066;-44
2022/02/15 08:34:04;;;;;;;37.95;18.35;;;4.40;65.20;;;;;;5115509;28;20024;-41
2022/02/15 08:36:30;;;;;;;50.38;21.15;;;4.40;65.20;;;;;;5116074;28;20034;-44
2022/02/15 08:38:56;;;;;;;56.67;36.20;;;4.40;65.30;;;;;;5115161;28;20031;-40
2022/02/15 08:41:21;;;;;;;43.08;23.58;;;4.40;65.20;;;;;;5116373;28;20032;-41
2022/02/15 08:43:47;;;;;;;55.17;25.83;;;4.40;65.20;;;;;;5115804;28;20032;-40
2022/02/15 08:46:13;;;;;;;44.35;21.30;;;4.40;65.20;;;;;;5116144;28;20028;-42
2022/02/15 08:48:38;;;;;;;38.80;18.38;;;4.50;65.30;;;;;;5114872;28;20309;-40
2022/02/15 08:51:04;;;;;;;32.90;16.75;;;4.40;65.20;;;;;;5116148;28;20020;-41
2022/02/15 08:53:30;;;;;;;39.72;21.55;;;4.50;65.20;;;;;;5115417;28;20024;-39
2022/02/15 08:55:55;;;;;;;38.88;20.20;;;4.50;65.10;;;;;;5116218;28;20020;-44
2022/02/15 08:58:21;;;;;;;44.72;22.23;;;4.50;65.00;;;;;;5114987;28;20416;-41
2022/02/15 09:00:47;;;;;;;36.30;17.20;;;4.60;65.00;;;;;;5115343;28;20023;-40
2022/02/15 09:03:14;;;;;;;46.83;23.58;;;4.60;65.00;;;;;;5117456;28;20031;-40
2022/02/15 09:05:39;;;;;;;51.55;28.88;;;4.60;64.80;;;;;;5120476;28;20066;-40
2022/02/15 09:08:05;;;;;;;56.55;24.20;;;4.70;64.80;;;;;;5118956;28;20423;-46
2022/02/15 09:10:31;;;;;;;35.10;17.05;;;4.70;64.80;;;;;;5120009;28;20027;-45
2022/02/15 09:12:56;;;;;;;57.88;37.97;;;4.80;64.70;;;;;;5119241;28;20450;-40
2022/02/15 09:15:22;;;;;;;39.72;23.80;;;4.80;64.40;;;;;;5119936;28;20437;-46
2022/02/15 09:17:48;;;;;;;70.25;35.88;;;4.80;64.20;;;;;;5119263;28;20023;-41
2022/02/15 09:20:13;;;;;;;44.90;22.30;;;4.80;64.20;;;;;;5119825;28;20032;-42
2022/02/15 09:22:40;;;;;;;35.58;19.33;;;4.90;64.10;;;;;;5116870;27;20031;-40
2022/02/15 09:25:06;;;;;;;48.35;27.80;;;4.90;64.00;;;;;;5119476;28;20120;-40
2022/02/15 09:27:32;;;;;;;46.55;22.38;;;4.90;64.00;;;;;;5118721;28;20024;-45
2022/02/15 09:29:58;;;;;;;58.05;28.98;;;4.90;64.10;;;;;;5119160;28;20414;-44
2022/02/15 09:32:23;;;;;;;48.28;23.13;;;4.90;64.10;;;;;;5118885;28;20031;-40
2022/02/15 09:34:49;;;;;;;69.68;35.10;;;4.90;64.10;;;;;;5119704;27;20043;-44
2022/02/15 09:37:15;;;;;;;44.22;23.52;;;4.90;64.00;;;;;;5118647;28;20309;-38
2022/02/15 09:39:42;;;;;;;147.18;62.95;;;5.00;64.10;;;;;;5119253;28;20024;-43
2022/02/15 09:42:08;;;;;;;365.83;192.82;;;5.00;64.00;;;;;;5119184;28;20032;-44
2022/02/15 09:44:34;;;;;;;162.15;80.32;;;5.00;64.00;;;;;;5119109;28;20031;-43
2022/02/15 09:47:00;;;;;;;107.90;56.78;;;5.00;64.00;;;;;;5118660;28;20084;-42
2022/02/15 09:52:12;;;;;;;37.10;20.63;;;5.10;64.00;;;;;;5118501;28;20436;-43
2022/02/15 09:54:40;;;;;;;42.15;21.58;;;5.10;64.60;;;;;;5119294;28;20025;-37
2022/02/15 09:57:06;;;;;;;91.15;60.22;;;5.20;63.90;;;;;;5118427;28;20407;-41
2022/02/15 09:59:32;;;;;;;51.67;26.33;;;5.20;63.80;;;;;;5119015;28;20045;-38
2022/02/15 10:02:00;;;;;;;101.10;50.83;;;5.20;63.70;;;;;;5118740;28;20034;-44
2022/02/15 10:04:34;;;;;;;93.30;44.65;;;5.20;63.70;;;;;;5118546;28;20051;-38
2022/02/15 10:07:03;;;;;;;83.07;41.70;;;5.30;63.60;;;;;;5118516;28;20032;-43
2022/02/15 10:09:30;;;;;;;71.35;28.77;;;5.30;63.70;;;;;;5119003;28;20023;-38
2022/02/15 10:12:11;;;;;;;105.90;51.15;;;5.30;63.80;;;;;;5118062;28;20028;-44
2022/02/15 10:14:43;;;;;;;75.38;44.17;;;5.30;63.70;;;;;;5117793;28;20396;-37
2022/02/15 10:17:18;;;;;;;83.55;46.45;;;5.30;63.60;;;;;;5118098;28;20031;-43
2022/02/15 10:19:48;;;;;;;86.75;52.53;;;5.40;63.80;;;;;;5118739;28;20032;-37
2022/02/15 10:22:19;;;;;;;36.88;19.25;;;5.30;63.80;;;;;;5118427;28;20681;-37
2022/02/15 10:24:58;;;;;;;47.65;24.05;;;5.40;63.80;;;;;;5118888;28;20032;-37
2022/02/15 10:27:35;;;;;;;45.53;26.50;;;5.40;63.70;;;;;;5117656;28;20450;-37
2022/02/15 10:30:03;;;;;;;96.38;60.25;;;5.50;63.60;;;;;;5118834;28;20402;-43
2022/02/15 10:32:29;;;;;;;80.20;50.28;;;5.50;63.50;;;;;;5117879;28;20092;-43
2022/02/15 10:34:58;;;;;;;69.93;44.65;;;5.50;63.40;;;;;;5118528;28;20039;-38
2022/02/15 10:37:30;;;;;;;34.80;19.23;;;5.60;63.40;;;;;;5117956;28;20027;-38
2022/02/15 10:40:01;;;;;;;50.33;25.88;;;5.60;63.40;;;;;;5118632;28;20051;-43
2022/02/15 10:42:28;;;;;;;87.80;47.40;;;5.60;63.30;;;;;;5117680;28;20043;-44
2022/02/15 10:45:02;;;;;;;46.58;23.98;;;5.70;63.20;;;;;;5118297;28;20107;-44
2022/02/15 10:47:31;;;;;;;70.15;34.22;;;5.70;63.10;;;;;;5115489;28;20027;-42
2022/02/15 10:50:06;;;;;;;74.20;34.25;;;5.80;62.90;;;;;;5118279;27;20019;-37
2022/02/15 10:52:32;;;;;;;99.55;45.97;;;5.80;62.90;;;;;;5117519;28;20120;-43
2022/02/15 10:54:58;;;;;;;59.38;29.15;;;5.80;62.90;;;;;;5118121;28;20027;-43
2022/02/15 10:57:25;;;;;;;40.20;19.52;;;5.90;62.90;;;;;;5117744;28;20024;-37
2022/02/15 10:59:55;;;;;;;97.43;44.25;;;5.90;62.80;;;;;;5118314;28;20031;-44
2022/02/15 11:02:25;;;;;;;82.93;37.00;;;5.90;62.80;;;;;;5117512;28;20020;-43
2022/02/15 11:04:52;;;;;;;58.55;23.67;;;5.90;62.60;;;;;;5118112;28;20031;-37
2022/02/15 11:07:24;;;;;;;148.02;66.30;;;6.00;62.50;;;;;;5118003;28;20320;-38
2022/02/15 11:09:56;;;;;;;126.07;55.08;;;6.00;62.30;;;;;;5117530;28;20020;-38
2022/02/15 11:12:43;;;;;;;150.00;68.75;;;6.00;62.30;;;;;;5117870;28;20028;-44
2022/02/15 11:15:11;;;;;;;80.25;35.72;;;6.10;62.30;;;;;;5117848;28;20118;-43
2022/02/15 11:17:51;;;;;;;64.50;31.52;;;6.10;62.40;;;;;;5117520;28;20031;-38
2022/02/15 11:20:20;;;;;;;56.55;29.55;;;6.10;62.70;;;;;;5117681;28;20028;-44
2022/02/15 11:22:53;;;;;;;81.30;43.25;;;6.20;62.60;;;;;;5117498;28;20040;-43
2022/02/15 11:25:36;;;;;;;84.45;39.42;;;6.30;62.30;;;;;;5117417;28;20088;-43
2022/02/15 11:28:11;;;;;;;42.03;19.88;;;6.30;62.00;;;;;;5116470;28;20032;-43
2022/02/15 11:30:54;;;;;;;156.48;62.40;;;6.40;62.00;;;;;;5112995;28;20031;-44
2022/02/15 11:33:26;;;;;;;102.40;48.30;;;6.50;61.80;;;;;;5116740;28;20056;-44
2022/02/15 11:35:57;;;;;;;53.47;27.90;;;6.50;61.50;;;;;;5117295;28;20065;-37
2022/02/15 11:38:26;;;;;;;46.88;23.83;;;6.50;61.40;;;;;;5116847;28;20366;-37
2022/02/15 11:40:59;;;;;;;86.22;40.55;;;6.60;61.30;;;;;;5117186;27;20034;-38
2022/02/15 11:43:25;;;;;;;52.83;28.40;;;6.60;61.20;;;;;;5116322;28;20043;-37
2022/02/15 11:45:51;;;;;;;68.07;34.40;;;6.60;61.10;;;;;;5117275;28;20080;-38
2022/02/15 11:48:17;;;;;;;68.55;37.83;;;6.60;61.20;;;;;;5116201;28;20031;-42
2022/02/15 11:50:51;;;;;;;144.77;76.65;;;6.70;61.20;;;;;;5117043;28;20024;-42
2022/02/15 11:53:18;;;;;;;268.00;104.07;;;6.80;61.30;;;;;;5116689;28;20028;-38
2022/02/15 11:55:47;;;;;;;562.85;244.50;;;6.90;61.40;;;;;;5117133;27;20016;-43
2022/02/15 11:58:14;;;;;;;127.07;45.90;;;6.90;61.10;;;;;;5116798;28;20036;-43
2022/02/15 12:00:42;;;;;;;161.35;55.85;;;7.00;61.20;;;;;;5116974;28;20103;-38
2022/02/15 12:03:13;;;;;;;162.07;60.65;;;7.10;61.10;;;;;;5116463;28;20040;-38
2022/02/15 12:05:44;;;;;;;262.73;100.75;;;7.10;61.00;;;;;;5116677;28;20032;-43
2022/02/15 12:08:13;;;;;;;383.77;146.45;;;7.20;60.90;;;;;;5116262;28;20446;-42
2022/02/15 12:10:42;;;;;;;478.67;186.73;;;7.30;60.80;;;;;;5116412;28;20047;-41
2022/02/15 12:13:19;;;;;;;391.10;143.43;;;7.40;60.50;;;;;;5115838;28;20036;-37
2022/02/15 12:15:54;;;;;;;1221.07;588.00;;;7.50;60.90;;;;;;5116665;28;20028;-37
2022/02/15 12:18:30;;;;;;;1127.15;462.58;;;7.60;60.20;;;;;;5115805;28;20043;-37
2022/02/15 12:20:56;;;;;;;181.00;64.07;;;7.60;59.70;;;;;;5116216;28;20039;-46
2022/02/15 12:23:25;;;;;;;180.82;71.43;;;7.70;59.60;;;;;;5115845;27;20032;-43
2022/02/15 12:25:51;;;;;;;108.85;42.78;;;7.80;59.50;;;;;;5116539;28;20035;-42
2022/02/15 12:28:26;;;;;;;293.23;113.50;;;7.80;59.20;;;;;;5116075;28;20036;-39
2022/02/15 12:30:52;;;;;;;600.55;269.77;;;7.90;58.90;;;;;;5115089;28;20024;-37
2022/02/15 12:33:19;;;;;;;795.78;378.70;;;8.00;58.90;;;;;;5116097;28;20483;-43
2022/02/15 12:35:55;;;;;;;317.50;130.98;;;8.20;58.70;;;;;;5116612;28;20042;-37
2022/02/15 12:38:21;;;;;;;205.23;86.13;;;8.30;58.30;;;;;;5115644;28;20110;-42
2022/02/15 12:40:47;;;;;;;323.58;146.98;;;8.40;58.10;;;;;;5116296;28;20119;-37
2022/02/15 12:43:13;;;;;;;436.58;229.93;;;8.50;57.60;;;;;;5115779;28;20027;-39
2022/02/15 12:45:45;;;;;;;137.65;65.15;;;8.70;57.30;;;;;;5116211;28;20415;-36